createdAt,value
2022-08-22T00:01:15.186Z,18.04
2022-08-22T00:02:48.340Z,19.44
2022-08-22T00:03:15.359Z,18.30
2022-08-22T00:04:02.031Z,17.99
2022-08-22T00:07:02.111Z,17.99
2022-08-22T00:09:36.463Z,17.95
2022-08-22T00:12:18.267Z,17.97
2022-08-22T00:14:59.864Z,18.00
2022-08-22T00:17:53.281Z,18.03
2022-08-22T00:20:36.182Z,18.10
2022-08-22T00:23:22.396Z,18.10
2022-08-22T00:26:17.598Z,18.18
2022-08-22T00:28:54.102Z,18.14
2022-08-22T00:31:44.925Z,18.08
2022-08-22T00:34:24.072Z,18.02
2022-08-22T00:37:19.097Z,18.01
2022-08-22T00:39:47.254Z,18.00
2022-08-22T00:42:31.823Z,17.91
2022-08-22T00:45:05.174Z,18.00
2022-08-22T00:48:06.639Z,17.97
2022-08-22T00:50:43.717Z,18.00
2022-08-22T00:53:29.495Z,17.96
2022-08-22T00:56:15.439Z,17.94
2022-08-22T00:59:23.210Z,17.92
2022-08-22T01:01:57.562Z,17.91
2022-08-22T01:04:43.285Z,17.86
2022-08-22T01:07:40.269Z,17.86
2022-08-22T01:10:20.141Z,17.85
2022-08-22T01:13:04.330Z,17.85
2022-08-22T01:15:36.137Z,17.80
2022-08-22T01:18:24.674Z,17.81
2022-08-22T01:21:35.280Z,17.84
2022-08-22T01:24:35.906Z,17.85
2022-08-22T01:27:37.335Z,17.88
2022-08-22T01:30:27.729Z,17.95
2022-08-22T01:33:20.172Z,17.92
2022-08-22T01:35:56.586Z,17.92
2022-08-22T01:38:57.906Z,17.85
2022-08-22T01:41:44.881Z,17.76
2022-08-22T01:44:22.179Z,17.76
2022-08-22T01:46:52.654Z,17.81
2022-08-22T01:49:29.130Z,17.90
2022-08-22T01:52:11.153Z,17.89
2022-08-22T01:54:48.798Z,17.96
2022-08-22T01:57:16.977Z,17.93
2022-08-22T01:59:49.259Z,17.90
2022-08-22T02:02:54.332Z,17.86
2022-08-22T02:05:32.104Z,17.87
2022-08-22T02:08:21.423Z,17.94
2022-08-22T02:10:55.139Z,17.93
2022-08-22T02:13:46.001Z,18.01
2022-08-22T02:16:38.544Z,18.67
2022-08-22T02:19:15.297Z,18.67
2022-08-22T02:21:59.078Z,18.01
2022-08-22T02:24:45.338Z,18.00
2022-08-22T02:27:41.581Z,18.02
2022-08-22T02:30:21.798Z,18.05
2022-08-22T02:33:16.689Z,18.05
2022-08-22T02:35:57.661Z,18.06
2022-08-22T02:38:43.855Z,18.10
2022-08-22T02:41:17.589Z,18.10
2022-08-22T02:43:55.038Z,18.08
2022-08-22T02:46:47.040Z,18.06
2022-08-22T02:49:43.906Z,18.08
2022-08-22T02:52:26.158Z,18.06
2022-08-22T02:55:01.993Z,18.05
2022-08-22T02:57:57.880Z,18.03
2022-08-22T03:00:42.016Z,17.97
2022-08-22T03:03:15.854Z,17.86
2022-08-22T03:05:46.067Z,17.81
2022-08-22T03:08:22.397Z,17.76
2022-08-22T03:11:02.398Z,17.71
2022-08-22T03:13:45.022Z,17.71
2022-08-22T03:16:27.714Z,17.74
2022-08-22T03:19:18.664Z,17.74
2022-08-22T03:22:00.354Z,17.74
2022-08-22T03:24:40.094Z,17.80
2022-08-22T03:27:31.400Z,17.81
2022-08-22T03:30:07.018Z,17.82
2022-08-22T03:32:51.440Z,17.87
2022-08-22T03:35:37.964Z,17.87
2022-08-22T03:38:27.209Z,17.93
2022-08-22T03:41:20.104Z,17.98
2022-08-22T03:44:09.402Z,17.99
2022-08-22T03:46:39.842Z,18.05
2022-08-22T03:49:33.339Z,18.10
2022-08-22T03:52:28.905Z,18.10
2022-08-22T03:55:17.032Z,18.12
2022-08-22T03:57:56.462Z,18.14
2022-08-22T04:00:24.062Z,18.18
2022-08-22T04:03:04.882Z,18.22
2022-08-22T04:06:02.662Z,18.25
2022-08-22T04:09:19.050Z,18.28
2022-08-22T04:12:07.583Z,18.30
2022-08-22T04:14:59.935Z,18.35
2022-08-22T04:17:44.601Z,18.34
2022-08-22T04:20:21.850Z,18.37
2022-08-22T04:23:11.361Z,18.39
2022-08-22T04:25:44.154Z,18.34
2022-08-22T04:28:19.936Z,18.26
2022-08-22T04:31:02.629Z,18.27
2022-08-22T04:33:40.233Z,18.31
2022-08-22T04:36:24.804Z,18.36
2022-08-22T04:39:37.530Z,18.41
2022-08-22T04:42:33.131Z,18.51
2022-08-22T04:45:13.557Z,18.55
2022-08-22T04:47:54.189Z,18.59
2022-08-22T04:51:00.343Z,18.66
2022-08-22T04:54:19.030Z,18.66
2022-08-22T04:57:10.971Z,18.73
2022-08-22T04:59:41.348Z,18.81
2022-08-22T05:02:20.877Z,18.85
2022-08-22T05:04:55.727Z,18.89
2022-08-22T05:07:35.904Z,18.92
2022-08-22T05:10:12.290Z,18.95
2022-08-22T05:12:51.764Z,18.95
2022-08-22T05:15:23.723Z,18.98
2022-08-22T05:17:55.261Z,19.05
2022-08-22T05:20:28.700Z,19.10
2022-08-22T05:23:03.087Z,19.18
2022-08-22T05:25:39.043Z,19.21
2022-08-22T05:28:36.502Z,19.26
2022-08-22T05:31:10.613Z,19.29
2022-08-22T05:33:44.066Z,19.37
2022-08-22T05:36:17.870Z,19.48
2022-08-22T05:38:57.315Z,19.55
2022-08-22T05:41:31.880Z,19.63
2022-08-22T05:44:01.025Z,19.73
2022-08-22T05:46:46.789Z,19.81
2022-08-22T05:49:51.912Z,19.87
2022-08-22T05:52:40.910Z,19.98
2022-08-22T05:55:17.613Z,20.15
2022-08-22T05:57:53.959Z,20.29
2022-08-22T06:00:25.610Z,20.46
2022-08-22T06:03:26.504Z,20.51
2022-08-22T06:05:58.370Z,20.58
2022-08-22T06:08:25.893Z,20.66
2022-08-22T06:11:05.354Z,20.69
2022-08-22T06:13:47.285Z,20.72
2022-08-22T06:16:21.050Z,20.74
2022-08-22T06:18:51.311Z,20.86
2022-08-22T06:21:38.631Z,20.86
2022-08-22T06:24:10.412Z,20.75
2022-08-22T06:26:46.105Z,20.80
2022-08-22T06:29:29.816Z,20.99
2022-08-22T06:31:58.961Z,21.35
2022-08-22T06:34:32.819Z,21.67
2022-08-22T06:37:05.051Z,21.79
2022-08-22T06:39:39.437Z,21.88
2022-08-22T06:42:23.002Z,21.88
2022-08-22T06:44:57.151Z,21.93
2022-08-22T06:47:29.951Z,21.87
2022-08-22T06:50:03.806Z,22.07
2022-08-22T06:52:39.872Z,22.21
2022-08-22T06:55:10.258Z,22.35
2022-08-22T06:57:56.215Z,22.51
2022-08-22T07:00:27.701Z,22.68
2022-08-22T07:03:06.361Z,22.68
2022-08-22T07:05:40.297Z,22.58
2022-08-22T07:08:11.143Z,22.64
2022-08-22T07:10:43.474Z,24.14
2022-08-22T07:13:17.180Z,24.81
2022-08-22T07:15:47.181Z,25.38
2022-08-22T07:18:23.311Z,24.97
2022-08-22T07:20:59.233Z,24.63
2022-08-22T07:23:36.088Z,24.51
2022-08-22T07:26:12.394Z,24.20
2022-08-22T07:29:11.358Z,24.08
2022-08-22T07:31:50.000Z,23.88
2022-08-22T07:34:39.430Z,23.84
2022-08-22T07:37:24.153Z,23.76
2022-08-22T07:40:16.235Z,23.57
2022-08-22T07:42:51.897Z,23.43
2022-08-22T07:45:27.953Z,23.54
2022-08-22T07:48:05.937Z,23.49
2022-08-22T07:50:42.161Z,23.42
2022-08-22T07:53:30.854Z,23.21
2022-08-22T07:56:01.452Z,23.06
2022-08-22T07:58:33.871Z,22.91
2022-08-22T08:01:02.494Z,22.80
2022-08-22T08:03:31.731Z,22.66
2022-08-22T08:06:02.347Z,22.65
2022-08-22T08:08:32.785Z,22.71
2022-08-22T08:11:01.605Z,22.61
2022-08-22T08:13:36.958Z,22.52
2022-08-22T08:16:08.422Z,22.34
2022-08-22T08:18:38.753Z,22.14
2022-08-22T08:21:28.216Z,22.03
2022-08-22T08:24:03.055Z,21.96
2022-08-22T08:27:01.800Z,21.75
2022-08-22T08:29:32.738Z,21.66
2022-08-22T08:32:07.878Z,21.54
2022-08-22T08:34:36.956Z,21.47
2022-08-22T08:37:17.398Z,21.61
2022-08-22T08:39:50.732Z,21.90
2022-08-22T08:43:10.816Z,22.26
2022-08-22T08:46:14.429Z,22.48
2022-08-22T08:49:13.189Z,22.72
2022-08-22T08:52:24.476Z,22.61
2022-08-22T08:54:55.693Z,22.57
2022-08-22T08:57:51.159Z,22.74
2022-08-22T09:00:57.518Z,23.11
2022-08-22T09:03:49.013Z,23.26
2022-08-22T09:06:57.407Z,23.25
2022-08-22T09:09:59.475Z,23.23
2022-08-22T09:13:12.393Z,23.79
2022-08-22T09:16:05.194Z,26.30
2022-08-22T09:19:08.152Z,26.31
2022-08-22T09:22:04.509Z,25.87
2022-08-22T09:24:49.852Z,25.24
2022-08-22T09:27:24.763Z,25.37
2022-08-22T09:33:07.037Z,25.59
2022-08-22T09:36:05.188Z,25.43
2022-08-22T09:38:51.686Z,24.72
2022-08-22T09:40:15.634Z,25.55
2022-08-22T09:41:32.453Z,25.03
2022-08-22T09:44:24.575Z,25.00
2022-08-22T09:47:02.982Z,24.88
2022-08-22T09:49:47.769Z,24.73
2022-08-22T09:52:34.606Z,24.60
2022-08-22T09:55:11.773Z,24.08
2022-08-22T09:58:05.757Z,23.99
2022-08-22T10:00:55.273Z,23.89
2022-08-22T10:03:48.954Z,23.88
2022-08-22T10:06:27.794Z,23.79
2022-08-22T10:09:09.003Z,23.65
2022-08-22T10:11:45.167Z,23.94
2022-08-22T10:14:26.659Z,23.96
2022-08-22T10:16:54.153Z,23.81
2022-08-22T10:19:25.199Z,23.83
2022-08-22T10:22:31.546Z,24.17
2022-08-22T10:25:08.520Z,24.16
2022-08-22T10:27:56.141Z,24.44
2022-08-22T10:30:34.251Z,24.46
2022-08-22T10:33:24.376Z,24.32
2022-08-22T10:35:51.840Z,24.52
2022-08-22T10:38:36.028Z,24.84
2022-08-22T10:42:02.294Z,25.11
2022-08-22T10:45:16.038Z,25.25
2022-08-22T10:47:51.899Z,26.36
2022-08-22T10:50:36.435Z,26.31
2022-08-22T10:53:31.272Z,26.59
2022-08-22T10:56:01.547Z,26.35
2022-08-22T10:58:36.817Z,26.87
2022-08-22T11:01:37.585Z,27.06
2022-08-22T11:04:17.983Z,27.19
2022-08-22T11:07:10.910Z,27.86
2022-08-22T11:09:44.568Z,28.33
2022-08-22T11:12:34.550Z,28.73
2022-08-22T11:15:24.180Z,28.54
2022-08-22T11:18:51.493Z,27.94
2022-08-22T11:22:03.823Z,26.77
2022-08-22T11:25:11.375Z,26.29
2022-08-22T11:27:54.344Z,25.54
2022-08-22T11:30:44.192Z,25.47
2022-08-22T11:33:47.710Z,25.38
2022-08-22T11:36:34.051Z,25.58
2022-08-22T11:39:35.432Z,26.06
2022-08-22T11:42:12.871Z,26.27
2022-08-22T11:45:04.154Z,27.11
2022-08-22T11:47:40.514Z,28.31
2022-08-22T11:50:45.720Z,28.48
2022-08-22T11:53:39.353Z,28.20
2022-08-22T11:56:32.349Z,29.16
2022-08-22T11:59:23.854Z,28.17
2022-08-22T12:02:01.525Z,28.17
2022-08-22T12:04:47.204Z,28.44
2022-08-22T12:07:40.817Z,28.44
2022-08-22T12:10:18.691Z,28.18
2022-08-22T12:12:47.602Z,28.38
2022-08-22T12:16:00.331Z,28.33
2022-08-22T12:18:46.215Z,28.21
2022-08-22T12:21:47.306Z,28.06
2022-08-22T12:24:30.603Z,28.03
2022-08-22T12:27:11.208Z,27.62
2022-08-22T12:30:15.486Z,27.28
2022-08-22T12:33:22.951Z,27.13
2022-08-22T12:36:18.296Z,26.53
2022-08-22T12:39:29.452Z,26.08
2022-08-22T12:42:28.782Z,25.89
2022-08-22T12:45:30.536Z,26.17
2022-08-22T12:48:48.044Z,25.83
2022-08-22T12:51:42.473Z,25.21
2022-08-22T12:54:41.381Z,24.76
2022-08-22T12:57:50.294Z,24.68
2022-08-22T13:00:41.882Z,24.64
2022-08-22T13:03:13.830Z,24.42
2022-08-22T13:05:59.994Z,24.31
2022-08-22T13:08:40.275Z,24.11
2022-08-22T13:11:22.682Z,24.16
2022-08-22T13:13:57.136Z,24.33
2022-08-22T13:16:37.305Z,24.54
2022-08-22T13:19:18.124Z,24.48
2022-08-22T13:21:56.152Z,24.41
2022-08-22T13:24:40.130Z,24.37
2022-08-22T13:27:25.770Z,24.60
2022-08-22T13:30:01.394Z,24.77
2022-08-22T13:32:44.510Z,24.66
2022-08-22T13:35:24.437Z,24.70
2022-08-22T13:38:03.572Z,25.19
2022-08-22T13:40:35.103Z,25.28
2022-08-22T13:43:09.643Z,25.38
2022-08-22T13:45:39.129Z,25.21
2022-08-22T13:48:13.714Z,25.02
2022-08-22T13:50:57.706Z,25.10
2022-08-22T13:53:35.316Z,24.72
2022-08-22T13:56:18.456Z,24.54
2022-08-22T13:58:51.364Z,24.82
2022-08-22T14:01:48.772Z,24.88
2022-08-22T14:04:37.373Z,24.74
2022-08-22T14:07:04.876Z,24.54
2022-08-22T14:10:15.024Z,24.48
2022-08-22T14:13:10.881Z,24.47
2022-08-22T14:15:45.068Z,24.62
2022-08-22T14:18:45.563Z,24.48
2022-08-22T14:21:29.568Z,24.31
2022-08-22T14:24:25.665Z,24.33
2022-08-22T14:27:08.639Z,24.33
2022-08-22T14:29:50.348Z,24.17
2022-08-22T14:32:30.881Z,24.19
2022-08-22T14:35:23.078Z,24.07
2022-08-22T14:38:27.468Z,24.05
2022-08-22T14:41:03.538Z,24.01
2022-08-22T14:43:40.636Z,23.83
2022-08-22T14:46:16.552Z,23.68
2022-08-22T14:49:10.623Z,23.59
2022-08-22T14:51:47.311Z,23.30
2022-08-22T14:54:23.473Z,23.19
2022-08-22T14:57:01.426Z,23.01
2022-08-22T14:59:50.226Z,22.93
2022-08-22T15:02:32.089Z,22.88
2022-08-22T15:05:13.071Z,22.87
2022-08-22T15:07:44.082Z,23.00
2022-08-22T15:10:42.220Z,23.16
2022-08-22T15:13:15.199Z,23.13
2022-08-22T15:15:52.963Z,23.01
2022-08-22T15:18:34.808Z,22.97
2022-08-22T15:21:24.359Z,22.94
2022-08-22T15:23:56.440Z,22.96
2022-08-22T15:26:37.379Z,22.88
2022-08-22T15:29:28.382Z,22.86
2022-08-22T15:32:02.137Z,22.85
2022-08-22T15:34:40.814Z,22.80
2022-08-22T15:37:30.144Z,22.70
2022-08-22T15:40:15.439Z,22.62
2022-08-22T15:42:46.069Z,22.49
2022-08-22T15:45:40.651Z,22.46
2022-08-22T15:48:26.178Z,22.29
2022-08-22T15:51:01.468Z,22.26
2022-08-22T15:54:16.432Z,22.20
2022-08-22T15:56:52.953Z,22.07
2022-08-22T15:59:29.343Z,21.98
2022-08-22T16:02:05.275Z,21.96
2022-08-22T16:04:37.728Z,21.93
2022-08-22T16:07:41.678Z,21.94
2022-08-22T16:10:35.116Z,22.01
2022-08-22T16:13:11.651Z,22.05
2022-08-22T16:15:52.674Z,22.01
2022-08-22T16:18:39.040Z,22.01
2022-08-22T16:21:14.255Z,21.99
2022-08-22T16:23:51.065Z,21.97
2022-08-22T16:26:40.589Z,21.92
2022-08-22T16:29:16.103Z,21.88
2022-08-22T16:31:45.443Z,21.79
2022-08-22T16:34:19.119Z,21.74
2022-08-22T16:36:49.536Z,21.70
2022-08-22T16:39:22.968Z,21.67
2022-08-22T16:42:15.548Z,21.60
2022-08-22T16:44:49.227Z,21.50
2022-08-22T16:47:18.879Z,21.43
2022-08-22T16:49:52.292Z,21.34
2022-08-22T16:52:22.655Z,21.27
2022-08-22T16:54:53.652Z,21.25
2022-08-22T16:57:59.429Z,21.17
2022-08-22T17:00:41.123Z,21.11
2022-08-22T17:03:30.118Z,21.03
2022-08-22T17:06:00.260Z,21.01
2022-08-22T17:08:55.714Z,21.00
2022-08-22T17:11:23.213Z,21.00
2022-08-22T17:14:09.621Z,20.94
2022-08-22T17:17:15.993Z,20.94
2022-08-22T17:20:02.735Z,20.90
2022-08-22T17:22:38.165Z,20.87
2022-08-22T17:25:20.719Z,20.82
2022-08-22T17:28:03.559Z,20.80
2022-08-22T17:30:46.011Z,20.81
2022-08-22T17:34:03.719Z,20.76
2022-08-22T17:36:47.411Z,20.80
2022-08-22T17:39:36.191Z,20.77
2022-08-22T17:42:37.461Z,20.66
2022-08-22T17:45:20.451Z,20.59
2022-08-22T17:48:12.831Z,20.52
2022-08-22T17:51:02.561Z,20.42
2022-08-22T17:53:55.080Z,20.38
2022-08-22T17:56:33.493Z,20.35
2022-08-22T17:59:10.607Z,20.33
2022-08-22T18:01:47.148Z,20.27
2022-08-22T18:04:24.510Z,20.24
2022-08-22T18:07:15.484Z,20.22
2022-08-22T18:10:07.499Z,20.22
2022-08-22T18:12:51.783Z,20.19
2022-08-22T18:15:31.464Z,20.17
2022-08-22T18:18:34.373Z,20.09
2022-08-22T18:21:20.656Z,20.07
2022-08-22T18:24:11.302Z,20.04
2022-08-22T18:26:59.357Z,20.00
2022-08-22T18:29:46.339Z,19.96
2022-08-22T18:32:26.806Z,19.96
2022-08-22T18:35:04.292Z,19.91
2022-08-22T18:37:32.861Z,19.78
2022-08-22T18:40:27.702Z,19.76
2022-08-22T18:43:17.681Z,19.77
2022-08-22T18:45:46.761Z,19.75
2022-08-22T18:48:27.840Z,19.75
2022-08-22T18:51:34.919Z,19.74
2022-08-22T18:54:06.848Z,19.77
2022-08-22T18:56:41.441Z,19.81
2022-08-22T18:59:14.854Z,19.83
2022-08-22T19:01:54.526Z,19.83
2022-08-22T19:04:53.375Z,19.85
2022-08-22T19:07:20.842Z,19.87
2022-08-22T19:10:00.034Z,19.85
2022-08-22T19:12:53.494Z,19.87
2022-08-22T19:15:21.382Z,19.88
2022-08-22T19:17:57.337Z,19.90
2022-08-22T19:20:47.399Z,19.94
2022-08-22T19:23:35.795Z,19.94
2022-08-22T19:26:22.969Z,19.93
2022-08-22T19:28:53.595Z,19.94
2022-08-22T19:31:44.498Z,19.97
2022-08-22T19:34:26.995Z,19.99
2022-08-22T19:37:30.861Z,20.02
2022-08-22T19:40:13.079Z,20.05
2022-08-22T19:42:44.055Z,20.04
2022-08-22T19:45:20.801Z,20.02
2022-08-22T19:47:59.341Z,19.99
2022-08-22T19:50:33.533Z,19.98
2022-08-22T19:53:04.066Z,20.00
2022-08-22T19:55:37.600Z,19.98
2022-08-22T19:58:05.335Z,19.99
2022-08-22T20:00:56.508Z,19.96
2022-08-22T20:03:34.930Z,19.90
2022-08-22T20:06:33.691Z,19.89
2022-08-22T20:09:48.462Z,19.90
2022-08-22T20:12:32.219Z,19.91
2022-08-22T20:15:13.132Z,19.89
2022-08-22T20:17:43.375Z,19.80
2022-08-22T20:20:28.022Z,19.74
2022-08-22T20:23:12.227Z,19.74
2022-08-22T20:25:44.950Z,19.69
2022-08-22T20:28:34.039Z,19.66
2022-08-22T20:31:04.982Z,19.63
2022-08-22T20:33:46.564Z,19.61
2022-08-22T20:36:27.907Z,19.57
2022-08-22T20:39:04.286Z,19.52
2022-08-22T20:41:31.834Z,19.53
2022-08-22T20:44:13.272Z,19.50
2022-08-22T20:46:43.804Z,19.50
2022-08-22T20:49:21.316Z,19.50
2022-08-22T20:52:23.411Z,19.46
2022-08-22T20:55:14.573Z,19.47
2022-08-22T20:57:56.121Z,19.49
2022-08-22T21:00:29.341Z,19.48
2022-08-22T21:03:08.667Z,19.49
2022-08-22T21:05:41.549Z,19.51
2022-08-22T21:08:19.658Z,19.53
2022-08-22T21:11:15.719Z,19.55
2022-08-22T21:13:48.526Z,19.51
2022-08-22T21:16:20.599Z,19.51
2022-08-22T21:18:49.951Z,19.48
2022-08-22T21:21:18.044Z,19.49
2022-08-22T21:23:49.349Z,19.52
2022-08-22T21:26:35.217Z,19.51
2022-08-22T21:29:13.456Z,19.49
2022-08-22T21:31:50.374Z,19.45
2022-08-22T21:34:23.319Z,19.44
2022-08-22T21:36:55.170Z,19.42
2022-08-22T21:39:27.485Z,19.40
2022-08-22T21:42:00.816Z,19.38
2022-08-22T21:44:46.598Z,19.40
2022-08-22T21:47:39.025Z,19.42
2022-08-22T21:50:09.220Z,19.41
2022-08-22T21:52:41.680Z,19.38
2022-08-22T21:55:23.380Z,19.35
2022-08-22T21:58:12.090Z,19.34
2022-08-22T22:00:48.797Z,19.36
2022-08-22T22:03:18.565Z,19.34
2022-08-22T22:05:46.157Z,19.33
2022-08-22T22:08:16.270Z,19.30
2022-08-22T22:10:45.424Z,19.30
2022-08-22T22:13:13.093Z,19.32
2022-08-22T22:15:44.937Z,19.31
2022-08-22T22:18:17.204Z,19.31
2022-08-22T22:20:46.769Z,19.32
2022-08-22T22:23:16.424Z,19.31
2022-08-22T22:25:45.718Z,19.33
2022-08-22T22:28:21.474Z,19.34
2022-08-22T22:30:53.019Z,19.34
2022-08-22T22:33:25.810Z,19.36
2022-08-22T22:35:55.556Z,19.38
2022-08-22T22:38:25.988Z,19.42
2022-08-22T22:40:57.185Z,19.45
2022-08-22T22:43:27.206Z,19.47
2022-08-22T22:45:57.095Z,19.44
2022-08-22T22:48:30.091Z,19.38
2022-08-22T22:50:57.627Z,19.38
2022-08-22T22:53:37.954Z,19.38
2022-08-22T22:56:11.973Z,19.42
2022-08-22T22:58:43.810Z,19.44
2022-08-22T23:01:20.842Z,19.45
2022-08-22T23:03:49.497Z,19.44
2022-08-22T23:06:21.873Z,19.45
2022-08-22T23:08:50.086Z,19.47
2022-08-22T23:11:20.841Z,19.48
2022-08-22T23:13:51.722Z,19.47
2022-08-22T23:16:28.091Z,19.35
2022-08-22T23:18:56.158Z,19.30
2022-08-22T23:21:27.825Z,19.29
2022-08-22T23:24:00.247Z,19.28
2022-08-22T23:26:28.791Z,19.26
2022-08-22T23:29:00.719Z,19.25
2022-08-22T23:31:35.394Z,19.26
2022-08-22T23:34:11.735Z,19.25
2022-08-22T23:36:41.023Z,19.30
2022-08-22T23:39:10.109Z,19.27
2022-08-22T23:41:38.871Z,19.26
2022-08-22T23:44:08.514Z,19.25
2022-08-22T23:46:42.197Z,19.25
2022-08-22T23:49:14.975Z,19.22
2022-08-22T23:51:43.667Z,19.21
2022-08-22T23:54:13.792Z,19.20
2022-08-22T23:56:47.775Z,19.21
2022-08-22T23:59:19.859Z,19.21
